createdAt,value
2019-04-20T00:00:52.993Z,0.00
2019-04-20T00:01:48.865Z,0.00
2019-04-20T00:02:53.486Z,0.00
2019-04-20T00:03:50.153Z,0.00
2019-04-20T00:04:49.470Z,0.00
2019-04-20T00:05:49.006Z,0.00
2019-04-20T00:06:51.662Z,0.00
2019-04-20T00:07:50.096Z,0.00
2019-04-20T00:08:55.629Z,0.00
2019-04-20T00:09:56.665Z,0.00
2019-04-20T00:10:58.346Z,0.00
2019-04-20T00:12:00.089Z,0.00
2019-04-20T00:13:02.060Z,0.00
2019-04-20T00:13:59.179Z,0.00
2019-04-20T00:14:49.941Z,0.00
2019-04-20T00:15:49.240Z,0.00
2019-04-20T00:16:48.556Z,0.00
2019-04-20T00:17:55.049Z,0.00
2019-04-20T00:18:53.179Z,0.00
2019-04-20T00:19:53.558Z,0.00
2019-04-20T00:20:50.415Z,0.00
2019-04-20T00:21:55.311Z,0.00
2019-04-20T00:22:50.890Z,0.00
2019-04-20T00:23:50.282Z,0.00
2019-04-20T00:24:51.583Z,0.00
2019-04-20T00:26:00.465Z,0.00
2019-04-20T00:28:04.427Z,0.00
2019-04-20T00:29:07.062Z,0.00
2019-04-20T00:30:03.359Z,0.00
2019-04-20T00:31:07.142Z,0.00
2019-04-20T00:32:01.631Z,0.00
2019-04-20T00:33:01.069Z,0.00
2019-04-20T00:33:59.454Z,0.00
2019-04-20T00:34:49.551Z,0.00
2019-04-20T00:35:48.493Z,0.00
2019-04-20T00:36:48.132Z,0.00
2019-04-20T00:37:48.788Z,0.00
2019-04-20T00:38:53.038Z,0.00
2019-04-20T00:39:48.839Z,0.00
2019-04-20T00:40:49.531Z,0.00
2019-04-20T00:41:55.350Z,0.00
2019-04-20T00:42:52.471Z,0.00
2019-04-20T00:43:49.190Z,0.00
2019-04-20T00:44:58.799Z,0.00
2019-04-20T00:45:55.900Z,0.00
2019-04-20T00:47:06.073Z,0.00
2019-04-20T00:47:57.351Z,0.00
2019-04-20T00:48:55.978Z,0.00
2019-04-20T00:50:02.648Z,0.00
2019-04-20T00:51:11.497Z,0.00
2019-04-20T00:52:13.165Z,0.00
2019-04-20T00:53:02.175Z,0.00
2019-04-20T00:53:51.671Z,0.00
2019-04-20T00:54:47.753Z,0.00
2019-04-20T00:55:48.553Z,0.00
2019-04-20T00:56:47.882Z,0.00
2019-04-20T00:57:54.831Z,0.00
2019-04-20T00:58:57.476Z,0.00
2019-04-20T01:00:06.170Z,0.00
2019-04-20T01:01:06.889Z,0.00
2019-04-20T01:02:06.131Z,0.00
2019-04-20T01:03:00.990Z,0.00
2019-04-20T01:04:13.156Z,0.00
2019-04-20T01:05:04.009Z,0.00
2019-04-20T01:06:06.508Z,0.00
2019-04-20T01:07:01.556Z,0.00
2019-04-20T01:07:54.683Z,0.00
2019-04-20T01:08:48.483Z,0.00
2019-04-20T01:09:47.852Z,0.00
2019-04-20T01:10:51.492Z,0.00
2019-04-20T01:11:48.559Z,0.00
2019-04-20T01:12:50.792Z,0.00
2019-04-20T01:13:53.602Z,0.00
2019-04-20T01:14:55.159Z,0.00
2019-04-20T01:15:55.429Z,0.00
2019-04-20T01:16:54.950Z,0.00
2019-04-20T01:17:47.261Z,0.00
2019-04-20T01:18:48.100Z,0.00
2019-04-20T01:19:48.900Z,0.00
2019-04-20T01:20:47.374Z,0.00
2019-04-20T01:21:54.816Z,0.00
2019-04-20T01:22:56.093Z,0.00
2019-04-20T01:23:53.269Z,0.00
2019-04-20T01:24:48.719Z,0.00
2019-04-20T01:25:55.193Z,0.00
2019-04-20T01:26:51.659Z,0.00
2019-04-20T01:28:06.769Z,0.00
2019-04-20T01:29:01.780Z,0.00
2019-04-20T01:29:51.418Z,0.00
2019-04-20T01:30:59.983Z,0.00
2019-04-20T01:32:03.619Z,0.00
2019-04-20T01:33:00.159Z,0.00
2019-04-20T01:33:56.313Z,0.00
2019-04-20T01:34:56.453Z,0.00
2019-04-20T01:36:03.518Z,0.00
2019-04-20T01:37:04.520Z,0.00
2019-04-20T01:38:07.262Z,0.00
2019-04-20T01:39:01.389Z,0.00
2019-04-20T01:39:50.833Z,0.00
2019-04-20T01:40:46.765Z,0.00
2019-04-20T01:41:47.668Z,0.00
2019-04-20T01:42:46.888Z,0.00
2019-04-20T01:43:48.007Z,0.00
2019-04-20T01:44:50.529Z,0.00
2019-04-20T01:45:47.640Z,0.00
2019-04-20T01:46:52.868Z,0.00
2019-04-20T01:47:51.442Z,0.00
2019-04-20T01:48:46.598Z,0.00
2019-04-20T01:49:47.717Z,0.00
2019-04-20T01:50:56.307Z,0.00
2019-04-20T01:51:57.508Z,0.00
2019-04-20T01:52:58.349Z,0.00
2019-04-20T01:54:03.889Z,0.00
2019-04-20T01:55:08.691Z,0.00
2019-04-20T01:56:05.423Z,0.00
2019-04-20T01:56:59.120Z,0.00
2019-04-20T01:58:06.081Z,0.00
2019-04-20T01:59:04.688Z,0.00
2019-04-20T01:59:57.238Z,0.00
2019-04-20T02:00:48.132Z,0.00
2019-04-20T02:01:47.526Z,0.00
2019-04-20T02:02:52.065Z,0.00
2019-04-20T02:03:48.954Z,0.00
2019-04-20T02:04:49.347Z,0.00
2019-04-20T02:05:54.027Z,0.00
2019-04-20T02:06:52.095Z,0.00
2019-04-20T02:07:49.372Z,0.00
2019-04-20T02:08:46.371Z,0.00
2019-04-20T02:09:53.472Z,0.00
2019-04-20T02:10:52.455Z,0.00
2019-04-20T02:11:49.778Z,0.00
2019-04-20T02:12:51.365Z,0.00
2019-04-20T02:13:52.906Z,0.00
2019-04-20T02:14:52.197Z,0.00
2019-04-20T02:15:51.193Z,0.00
2019-04-20T02:16:51.719Z,0.00
2019-04-20T02:17:59.713Z,0.00
2019-04-20T02:19:08.229Z,0.00
2019-04-20T02:20:05.394Z,0.00
2019-04-20T02:21:05.169Z,0.00
2019-04-20T02:21:58.850Z,0.00
2019-04-20T02:23:01.617Z,0.00
2019-04-20T02:23:51.531Z,0.00
2019-04-20T02:24:46.781Z,0.00
2019-04-20T02:25:45.978Z,0.00
2019-04-20T02:26:47.150Z,0.00
2019-04-20T02:27:51.814Z,0.00
2019-04-20T02:29:13.506Z,0.00
2019-04-20T02:30:14.372Z,0.00
2019-04-20T02:31:23.475Z,0.00
2019-04-20T02:32:26.617Z,0.00
2019-04-20T02:33:32.334Z,0.00
2019-04-20T02:34:23.884Z,0.00
2019-04-20T02:35:16.849Z,0.00
2019-04-20T02:36:42.918Z,0.00
2019-04-20T02:37:45.102Z,0.00
2019-04-20T02:39:37.971Z,0.00
2019-04-20T02:40:15.957Z,0.00
2019-04-20T02:41:17.811Z,0.00
2019-04-20T02:42:19.701Z,0.00
2019-04-20T02:43:21.648Z,0.00
2019-04-20T02:45:28.241Z,0.00
2019-04-20T02:46:18.478Z,0.00
2019-04-20T02:47:25.812Z,0.00
2019-04-20T02:48:15.924Z,0.00
2019-04-20T02:49:37.024Z,0.00
2019-04-20T02:50:24.979Z,0.00
2019-04-20T02:51:13.261Z,0.00
2019-04-20T02:52:20.942Z,0.00
2019-04-20T02:55:15.351Z,0.00
2019-04-20T02:56:29.700Z,0.00
2019-04-20T02:57:22.460Z,0.00
2019-04-20T02:58:15.322Z,0.00
2019-04-20T03:00:12.281Z,0.00
2019-04-20T03:01:11.991Z,0.00
2019-04-20T03:02:06.035Z,0.00
2019-04-20T03:02:55.940Z,0.00
2019-04-20T03:03:51.130Z,0.00
2019-04-20T03:04:56.233Z,0.00
2019-04-20T03:06:01.384Z,0.00
2019-04-20T03:06:59.777Z,0.00
2019-04-20T03:08:06.462Z,0.00
2019-04-20T03:09:09.000Z,0.00
2019-04-20T03:10:06.529Z,0.00
2019-04-20T03:11:06.196Z,0.00
2019-04-20T03:12:09.216Z,0.00
2019-04-20T03:13:08.055Z,0.00
2019-04-20T03:14:03.990Z,0.00
2019-04-20T03:14:59.721Z,0.00
2019-04-20T03:16:05.425Z,0.00
2019-04-20T03:17:10.393Z,0.00
2019-04-20T03:18:11.739Z,0.00
2019-04-20T03:19:03.162Z,0.00
2019-04-20T03:19:58.256Z,0.00
2019-04-20T03:21:08.131Z,0.00
2019-04-20T03:22:09.091Z,0.00
2019-04-20T03:23:24.639Z,0.00
2019-04-20T03:24:15.887Z,0.00
2019-04-20T03:25:08.162Z,0.00
2019-04-20T03:26:05.328Z,0.00
2019-04-20T03:26:59.905Z,0.00
2019-04-20T03:28:05.135Z,0.00
2019-04-20T03:29:01.406Z,0.00
2019-04-20T03:30:07.693Z,0.00
2019-04-20T03:34:41.355Z,0.00
2019-04-20T03:36:16.737Z,0.00
2019-04-20T03:37:07.078Z,0.00
2019-04-20T03:38:06.018Z,0.00
2019-04-20T03:39:01.466Z,0.00
2019-04-20T03:39:56.880Z,0.00
2019-04-20T03:40:57.156Z,0.00
2019-04-20T03:41:48.762Z,0.00
2019-04-20T03:42:44.673Z,0.00
2019-04-20T03:43:44.092Z,0.00
2019-04-20T03:44:51.198Z,0.00
2019-04-20T03:45:51.711Z,0.00
2019-04-20T03:46:52.235Z,0.00
2019-04-20T03:47:58.705Z,0.00
2019-04-20T03:49:01.098Z,0.00
2019-04-20T03:50:08.635Z,0.00
2019-04-20T03:51:04.587Z,0.00
2019-04-20T03:52:03.668Z,0.00
2019-04-20T03:53:11.016Z,0.00
2019-04-20T03:54:05.404Z,0.00
2019-04-20T03:54:55.497Z,0.00
2019-04-20T03:55:56.810Z,5.63
2019-04-20T03:57:07.760Z,5.63
2019-04-20T03:58:04.487Z,5.63
2019-04-20T03:58:56.182Z,5.63
2019-04-20T04:00:04.579Z,5.63
2019-04-20T04:00:59.255Z,5.63
2019-04-20T04:03:12.529Z,5.63
2019-04-20T04:04:10.973Z,11.25
2019-04-20T04:05:05.523Z,11.25
2019-04-20T04:05:59.041Z,11.25
2019-04-20T04:06:49.930Z,11.25
2019-04-20T04:07:50.904Z,11.25
2019-04-20T04:08:58.953Z,11.25
2019-04-20T04:10:00.782Z,11.25
2019-04-20T04:11:01.478Z,16.88
2019-04-20T04:11:58.595Z,16.88
2019-04-20T04:12:46.451Z,16.88
2019-04-20T04:13:43.834Z,16.88
2019-04-20T04:14:43.410Z,16.88
2019-04-20T04:15:50.104Z,22.50
2019-04-20T04:16:50.926Z,22.50
2019-04-20T04:17:45.618Z,22.50
2019-04-20T04:18:47.346Z,22.50
2019-04-20T04:19:52.078Z,28.13
2019-04-20T04:20:49.989Z,28.13
2019-04-20T04:21:59.197Z,28.13
2019-04-20T04:23:01.348Z,28.13
2019-04-20T04:23:59.952Z,28.13
2019-04-20T04:24:57.037Z,33.75
2019-04-20T04:26:00.686Z,33.75
2019-04-20T04:26:58.353Z,33.75
2019-04-20T04:28:01.388Z,33.75
2019-04-20T04:29:02.756Z,39.38
2019-04-20T04:30:01.761Z,39.38
2019-04-20T04:31:04.093Z,39.38
2019-04-20T04:32:12.319Z,39.38
2019-04-20T04:34:02.393Z,45.00
2019-04-20T04:34:57.978Z,45.00
2019-04-20T04:35:56.825Z,45.00
2019-04-20T04:37:07.660Z,45.00
2019-04-20T04:38:02.718Z,50.63
2019-04-20T04:39:03.678Z,50.63
2019-04-20T04:40:14.686Z,50.63
2019-04-20T04:42:14.618Z,56.25
2019-04-20T04:43:05.253Z,56.25
2019-04-20T04:43:58.835Z,56.25
2019-04-20T04:44:50.607Z,56.25
2019-04-20T04:45:42.750Z,56.25
2019-04-20T04:46:53.397Z,61.88
2019-04-20T04:47:42.950Z,61.88
2019-04-20T04:48:45.939Z,61.88
2019-04-20T04:49:44.884Z,61.88
2019-04-20T04:50:49.581Z,61.88
2019-04-20T04:51:52.014Z,67.50
2019-04-20T04:52:52.176Z,67.50
2019-04-20T04:53:52.969Z,67.50
2019-04-20T04:54:51.331Z,67.50
2019-04-20T04:55:51.007Z,67.50
2019-04-20T04:56:42.480Z,73.13
2019-04-20T04:57:43.235Z,73.13
2019-04-20T04:58:42.669Z,73.13
2019-04-20T04:59:42.588Z,73.13
2019-04-20T05:00:42.664Z,73.13
2019-04-20T05:01:46.989Z,78.75
2019-04-20T05:02:48.907Z,78.75
2019-04-20T05:04:09.821Z,78.75
2019-04-20T05:05:05.599Z,78.75
2019-04-20T05:06:01.374Z,78.75
2019-04-20T05:06:59.548Z,84.38
2019-04-20T05:07:51.807Z,84.38
2019-04-20T05:08:47.384Z,84.38
2019-04-20T05:09:42.918Z,84.38
2019-04-20T05:10:42.174Z,84.38
2019-04-20T05:11:42.750Z,90.00
2019-04-20T05:12:42.326Z,90.00
2019-04-20T05:13:50.586Z,90.00
2019-04-20T05:14:53.909Z,90.00
2019-04-20T05:15:53.956Z,90.00
2019-04-20T05:16:59.340Z,90.00
2019-04-20T05:18:04.441Z,95.63
2019-04-20T05:19:07.723Z,95.63
2019-04-20T05:20:02.669Z,95.63
2019-04-20T05:21:04.409Z,95.63
2019-04-20T05:22:04.016Z,95.63
2019-04-20T05:23:01.160Z,101.25
2019-04-20T05:23:59.106Z,101.25
2019-04-20T05:25:02.086Z,101.25
2019-04-20T05:26:10.096Z,101.25
2019-04-20T05:27:01.972Z,101.25
2019-04-20T05:28:03.029Z,106.88
2019-04-20T05:28:52.750Z,106.88
2019-04-20T05:29:42.834Z,106.88
2019-04-20T05:30:46.787Z,106.88
2019-04-20T05:31:49.346Z,112.50
2019-04-20T05:32:51.395Z,112.50
2019-04-20T05:34:11.469Z,112.50
2019-04-20T05:35:05.006Z,112.50
2019-04-20T05:36:03.072Z,112.50
2019-04-20T05:36:57.957Z,118.13
2019-04-20T05:38:08.822Z,118.13
2019-04-20T05:39:13.100Z,118.13
2019-04-20T05:40:07.428Z,118.13
2019-04-20T05:41:01.654Z,123.75
2019-04-20T05:41:58.192Z,123.75
2019-04-20T05:43:00.422Z,123.75
2019-04-20T05:43:56.597Z,129.38
2019-04-20T05:44:59.902Z,129.38
2019-04-20T05:45:53.953Z,129.38
2019-04-20T05:47:01.034Z,129.38
2019-04-20T05:47:58.274Z,135.00
2019-04-20T05:49:04.526Z,135.00
2019-04-20T05:49:59.803Z,135.00
2019-04-20T05:50:57.504Z,135.00
2019-04-20T05:52:02.610Z,140.63
2019-04-20T05:53:09.942Z,140.63
2019-04-20T05:54:02.586Z,140.63
2019-04-20T05:55:04.176Z,146.25
2019-04-20T05:55:59.260Z,146.25
2019-04-20T05:57:07.914Z,140.63
2019-04-20T05:58:03.599Z,146.25
2019-04-20T05:58:59.821Z,146.25
2019-04-20T06:00:23.482Z,146.25
2019-04-20T06:01:08.870Z,151.88
2019-04-20T06:02:05.011Z,151.88
2019-04-20T06:02:57.793Z,151.88
2019-04-20T06:03:57.703Z,157.50
2019-04-20T06:05:05.647Z,157.50
2019-04-20T06:06:03.518Z,157.50
2019-04-20T06:07:06.042Z,157.50
2019-04-20T06:07:59.088Z,163.13
2019-04-20T06:09:06.819Z,163.13
2019-04-20T06:10:05.881Z,163.13
2019-04-20T06:11:02.123Z,168.75
2019-04-20T06:13:00.261Z,168.75
2019-04-20T06:13:50.650Z,174.38
2019-04-20T06:14:55.867Z,174.38
2019-04-20T06:16:02.453Z,174.38
2019-04-20T06:17:02.934Z,180.00
2019-04-20T06:17:59.750Z,180.00
2019-04-20T06:19:06.832Z,180.00
2019-04-20T06:20:09.015Z,185.63
2019-04-20T06:21:02.387Z,185.63
2019-04-20T06:22:03.501Z,185.63
2019-04-20T06:23:09.377Z,191.25
2019-04-20T06:24:05.948Z,191.25
2019-04-20T06:25:19.764Z,196.88
2019-04-20T06:26:15.500Z,196.88
2019-04-20T06:27:16.020Z,202.50
2019-04-20T06:28:02.336Z,202.50
2019-04-20T06:28:54.073Z,208.13
2019-04-20T06:29:55.811Z,208.13
2019-04-20T06:30:52.828Z,213.75
2019-04-20T06:32:06.603Z,213.75
2019-04-20T06:33:11.411Z,213.75
2019-04-20T06:35:02.712Z,219.38
2019-04-20T06:36:16.355Z,225.00
2019-04-20T06:36:57.332Z,225.00
2019-04-20T06:38:10.163Z,230.63
2019-04-20T06:40:08.281Z,241.88
2019-04-20T06:41:13.905Z,247.50
2019-04-20T06:42:18.022Z,253.13
2019-04-20T06:43:05.132Z,258.75
2019-04-20T06:44:08.794Z,264.38
2019-04-20T06:45:07.053Z,264.38
2019-04-20T06:46:08.264Z,270.00
2019-04-20T06:47:08.948Z,275.63
2019-04-20T06:48:11.658Z,275.63
2019-04-20T06:49:15.146Z,281.25
2019-04-20T06:50:01.487Z,292.50
2019-04-20T06:51:00.919Z,303.75
2019-04-20T06:52:12.773Z,275.63
2019-04-20T06:52:54.204Z,320.63
2019-04-20T06:53:52.624Z,343.13
2019-04-20T06:54:57.774Z,781.88
2019-04-20T06:56:06.770Z,1631.25
2019-04-20T06:57:01.636Z,2131.88
2019-04-20T06:58:00.744Z,1991.25
2019-04-20T06:59:08.295Z,1974.38
2019-04-20T07:00:05.833Z,2047.50
2019-04-20T07:01:04.132Z,2053.13
2019-04-20T07:02:02.967Z,2058.75
2019-04-20T07:02:58.912Z,2058.75
2019-04-20T07:04:27.299Z,2092.50
2019-04-20T07:04:59.725Z,2075.63
2019-04-20T07:06:06.165Z,1974.38
2019-04-20T07:07:10.222Z,1839.38
2019-04-20T07:08:33.156Z,1878.75
2019-04-20T07:09:06.444Z,2081.25
2019-04-20T07:10:08.787Z,2233.13
2019-04-20T07:11:07.262Z,2227.50
2019-04-20T07:11:58.088Z,2188.13
2019-04-20T07:12:55.246Z,2188.13
2019-04-20T07:13:50.562Z,2205.00
2019-04-20T07:14:49.813Z,2171.25
2019-04-20T07:15:53.100Z,2216.25
2019-04-20T07:16:59.910Z,2311.88
2019-04-20T07:18:03.206Z,2356.88
2019-04-20T07:19:01.326Z,2261.25
2019-04-20T07:19:56.429Z,2171.25
2019-04-20T07:21:00.526Z,2221.88
2019-04-20T07:22:14.956Z,2356.88
2019-04-20T07:23:11.391Z,2463.75
2019-04-20T07:24:07.963Z,2480.63
2019-04-20T07:25:01.378Z,2424.38
2019-04-20T07:26:07.757Z,2503.13
2019-04-20T07:27:04.803Z,2486.25
2019-04-20T07:28:02.866Z,2446.88
2019-04-20T07:29:08.754Z,2475.00
2019-04-20T07:30:03.501Z,2576.25
2019-04-20T07:31:01.701Z,2700.00
2019-04-20T07:31:51.963Z,2649.38
2019-04-20T07:32:58.450Z,2570.63
2019-04-20T07:33:58.049Z,2559.38
2019-04-20T07:35:03.062Z,2587.50
2019-04-20T07:35:57.913Z,2626.88
2019-04-20T07:37:20.407Z,2520.00
2019-04-20T07:38:25.530Z,2441.25
2019-04-20T07:38:59.731Z,2373.75
2019-04-20T07:40:01.125Z,2328.75
2019-04-20T07:41:01.772Z,2469.38
2019-04-20T07:42:01.766Z,2677.50
2019-04-20T07:43:00.239Z,2688.75
2019-04-20T07:44:24.823Z,3031.88
2019-04-20T07:45:07.725Z,2593.13
2019-04-20T07:46:04.300Z,3695.63
2019-04-20T07:47:08.857Z,3673.13
2019-04-20T07:48:07.505Z,3780.00
2019-04-20T07:49:01.584Z,3774.38
2019-04-20T07:49:55.440Z,3875.63
2019-04-20T07:50:53.379Z,3937.50
2019-04-20T07:51:42.447Z,4201.88
2019-04-20T07:52:51.444Z,4145.63
2019-04-20T07:53:59.526Z,4100.63
2019-04-20T07:55:18.325Z,4168.13
2019-04-20T07:56:05.150Z,3706.88
2019-04-20T07:57:02.090Z,3881.25
2019-04-20T07:57:55.150Z,4117.50
2019-04-20T07:58:45.970Z,4156.88
2019-04-20T07:59:59.072Z,4038.75
2019-04-20T08:01:10.273Z,3796.88
2019-04-20T08:02:08.300Z,3583.13
2019-04-20T08:03:03.555Z,3673.13
2019-04-20T08:04:06.385Z,3605.63
2019-04-20T08:04:52.441Z,3414.38
2019-04-20T08:05:48.719Z,3369.38
2019-04-20T08:06:46.878Z,3133.13
2019-04-20T08:07:49.477Z,3172.50
2019-04-20T08:08:54.068Z,3206.25
2019-04-20T08:09:46.578Z,3324.38
2019-04-20T08:10:53.922Z,3341.25
2019-04-20T08:12:09.527Z,3442.50
2019-04-20T08:13:04.894Z,3555.00
2019-04-20T08:14:01.971Z,3268.13
2019-04-20T08:15:04.738Z,3082.50
2019-04-20T08:16:00.988Z,3121.88
2019-04-20T08:17:21.324Z,3065.63
2019-04-20T08:17:59.986Z,3105.00
2019-04-20T08:19:02.048Z,3217.50
2019-04-20T08:20:00.128Z,3341.25
2019-04-20T08:21:17.901Z,3223.13
2019-04-20T08:22:01.922Z,3110.63
2019-04-20T08:22:58.781Z,3155.63
2019-04-20T08:23:55.682Z,3223.13
2019-04-20T08:24:55.244Z,3476.25
2019-04-20T08:25:49.769Z,3549.38
2019-04-20T08:26:46.331Z,3515.63
2019-04-20T08:27:39.903Z,3223.13
2019-04-20T08:28:46.484Z,3015.00
2019-04-20T08:29:52.965Z,3088.13
2019-04-20T08:30:56.077Z,3127.50
2019-04-20T08:31:56.006Z,3324.38
2019-04-20T08:32:54.192Z,3538.13
2019-04-20T08:34:07.698Z,3740.63
2019-04-20T08:34:59.188Z,3645.00
2019-04-20T08:36:09.260Z,3588.75
2019-04-20T08:37:01.040Z,3510.00
2019-04-20T08:38:14.903Z,3633.75
2019-04-20T08:40:01.505Z,3695.63
2019-04-20T08:40:59.526Z,3448.13
2019-04-20T08:42:00.536Z,3285.00
2019-04-20T08:43:12.895Z,3301.88
2019-04-20T08:43:59.051Z,3358.13
2019-04-20T08:45:03.615Z,3594.38
2019-04-20T08:45:58.903Z,3633.75
2019-04-20T08:47:10.284Z,3628.13
2019-04-20T08:48:04.138Z,3616.88
2019-04-20T08:49:03.351Z,3116.25
2019-04-20T08:50:05.100Z,3054.38
2019-04-20T08:51:02.569Z,3234.38
2019-04-20T08:53:12.803Z,3144.38
2019-04-20T08:53:56.957Z,2795.63
2019-04-20T08:55:01.229Z,2486.25
2019-04-20T08:55:54.284Z,2289.38
2019-04-20T08:56:44.846Z,2373.75
2019-04-20T08:57:39.953Z,2790.00
2019-04-20T08:58:39.138Z,2587.50
2019-04-20T08:59:40.152Z,2486.25
2019-04-20T09:00:48.569Z,2255.63
2019-04-20T09:01:40.707Z,1828.13
2019-04-20T09:02:41.217Z,1558.13
2019-04-20T09:03:51.710Z,1372.50
2019-04-20T09:04:48.953Z,1265.63
2019-04-20T09:05:48.988Z,1226.25
2019-04-20T09:06:54.644Z,1215.00
2019-04-20T09:07:48.915Z,1175.63
2019-04-20T09:08:55.106Z,1141.88
2019-04-20T09:10:04.912Z,1125.00
2019-04-20T09:10:54.176Z,1125.00
2019-04-20T09:12:01.265Z,1125.00
2019-04-20T09:12:54.897Z,1125.00
2019-04-20T09:13:45.514Z,1147.50
2019-04-20T09:14:40.275Z,1147.50
2019-04-20T09:15:38.730Z,1125.00
2019-04-20T09:16:47.889Z,1102.50
2019-04-20T09:17:46.566Z,1141.88
2019-04-20T09:18:49.369Z,1186.88
2019-04-20T09:19:46.817Z,1181.25
2019-04-20T09:20:47.509Z,1102.50
2019-04-20T09:21:48.158Z,1147.50
2019-04-20T09:22:49.448Z,1209.38
2019-04-20T09:23:52.202Z,1198.13
2019-04-20T09:25:01.888Z,1226.25
2019-04-20T09:26:02.291Z,1226.25
2019-04-20T09:26:57.307Z,1271.25
2019-04-20T09:27:45.721Z,1288.13
2019-04-20T09:28:54.411Z,1344.38
2019-04-20T09:29:49.471Z,1440.00
2019-04-20T09:30:50.462Z,1681.88
2019-04-20T09:31:51.918Z,1850.63
2019-04-20T09:32:59.548Z,2188.13
2019-04-20T09:33:55.627Z,2446.88
2019-04-20T09:34:59.670Z,2576.25
2019-04-20T09:35:53.618Z,2638.13
2019-04-20T09:36:49.318Z,2964.38
2019-04-20T09:37:53.416Z,2829.38
2019-04-20T09:38:47.790Z,3268.13
2019-04-20T09:39:53.324Z,3543.75
2019-04-20T09:40:59.715Z,3178.13
2019-04-20T09:41:59.253Z,3285.00
2019-04-20T09:42:38.614Z,3121.88
2019-04-20T09:43:38.975Z,2795.63
2019-04-20T09:44:43.874Z,2475.00
2019-04-20T09:45:44.147Z,2216.25
2019-04-20T09:46:44.386Z,1468.13
2019-04-20T09:47:43.561Z,1215.00
2019-04-20T09:48:42.915Z,1260.00
2019-04-20T09:49:49.621Z,1260.00
2019-04-20T09:51:00.828Z,1243.13
2019-04-20T09:51:56.380Z,1276.88
2019-04-20T09:52:59.555Z,1293.75
2019-04-20T09:53:48.476Z,1305.00
2019-04-20T09:54:56.355Z,1968.75
2019-04-20T09:55:59.235Z,3960.00
2019-04-20T09:57:00.787Z,4775.63
2019-04-20T09:57:59.113Z,4680.00
2019-04-20T09:59:01.323Z,4269.38
2019-04-20T09:59:57.512Z,4190.63
2019-04-20T10:00:53.914Z,4162.50
2019-04-20T10:01:45.316Z,4224.38
2019-04-20T10:02:39.951Z,3735.00
2019-04-20T10:03:38.838Z,3886.88
2019-04-20T10:04:39.816Z,3774.38
2019-04-20T10:05:38.523Z,3718.13
2019-04-20T10:06:39.371Z,3898.13
2019-04-20T10:07:39.267Z,4387.50
2019-04-20T10:08:43.516Z,4595.63
2019-04-20T10:09:43.526Z,4320.00
2019-04-20T10:10:42.030Z,4376.25
2019-04-20T10:11:42.024Z,4190.63
2019-04-20T10:12:39.737Z,4156.88
2019-04-20T10:13:38.504Z,4438.13
2019-04-20T10:14:38.548Z,4505.63
2019-04-20T10:15:39.651Z,4719.38
2019-04-20T10:16:39.707Z,4798.13
2019-04-20T10:17:38.706Z,4595.63
2019-04-20T10:18:44.071Z,4719.38
2019-04-20T10:19:40.960Z,4820.63
2019-04-20T10:20:40.572Z,4893.75
2019-04-20T10:21:38.490Z,4989.38
2019-04-20T10:22:38.487Z,4983.75
2019-04-20T10:23:38.756Z,4837.50
2019-04-20T10:24:38.846Z,4606.88
2019-04-20T10:25:38.540Z,4651.88
2019-04-20T10:26:38.717Z,4860.00
2019-04-20T10:27:39.763Z,4888.13
2019-04-20T10:28:39.395Z,4708.13
2019-04-20T10:29:39.737Z,4685.63
2019-04-20T10:30:38.793Z,4860.00
2019-04-20T10:31:45.495Z,5169.38
2019-04-20T10:32:43.037Z,5388.75
2019-04-20T10:33:39.621Z,5461.88
2019-04-20T10:34:38.863Z,5613.75
2019-04-20T10:35:39.443Z,5658.75
2019-04-20T10:36:39.581Z,5456.25
2019-04-20T10:37:39.680Z,5360.63
2019-04-20T10:38:38.465Z,5281.88
2019-04-20T10:39:38.562Z,5101.88
2019-04-20T10:40:50.742Z,5017.50
2019-04-20T10:41:46.982Z,4882.50
2019-04-20T10:42:38.465Z,4651.88
2019-04-20T10:43:38.812Z,4415.63
2019-04-20T10:44:38.929Z,4432.50
2019-04-20T10:45:39.180Z,4663.13
2019-04-20T10:46:38.853Z,5107.50
2019-04-20T10:47:38.989Z,5315.63
2019-04-20T10:48:45.173Z,5535.00
2019-04-20T10:49:38.540Z,5568.75
2019-04-20T10:50:38.956Z,5518.13
2019-04-20T10:51:39.810Z,5383.13
2019-04-20T10:52:38.457Z,5175.00
2019-04-20T10:53:38.496Z,5253.75
2019-04-20T10:54:38.561Z,5242.50
2019-04-20T10:55:39.640Z,5169.38
2019-04-20T10:56:39.381Z,4786.88
2019-04-20T10:57:39.702Z,4955.63
2019-04-20T10:58:38.455Z,5090.63
2019-04-20T10:59:39.435Z,5113.13
2019-04-20T11:00:39.605Z,5073.75
2019-04-20T11:01:38.467Z,5062.50
2019-04-20T11:02:39.607Z,4933.13
2019-04-20T11:03:38.537Z,4606.88
2019-04-20T11:04:38.817Z,4286.25
2019-04-20T11:05:38.453Z,4477.50
2019-04-20T11:06:38.685Z,4460.63
2019-04-20T11:07:38.794Z,4083.75
2019-04-20T11:08:38.506Z,4050.00
2019-04-20T11:09:38.767Z,3903.75
2019-04-20T11:10:51.082Z,4331.25
2019-04-20T11:11:38.826Z,4494.38
2019-04-20T11:12:38.450Z,4730.63
2019-04-20T11:13:39.378Z,4342.50
2019-04-20T11:14:40.903Z,3802.50
2019-04-20T11:15:38.789Z,3836.25
2019-04-20T11:16:38.449Z,4235.63
2019-04-20T11:17:39.492Z,4179.38
2019-04-20T11:18:39.631Z,4438.13
2019-04-20T11:19:39.228Z,4466.25
2019-04-20T11:20:39.410Z,4657.50
2019-04-20T11:21:38.725Z,4955.63
2019-04-20T11:22:38.446Z,4933.13
2019-04-20T11:23:38.446Z,4972.50
2019-04-20T11:24:38.640Z,4606.88
2019-04-20T11:25:38.445Z,4500.00
2019-04-20T11:26:40.549Z,4505.63
2019-04-20T11:27:38.455Z,4539.38
2019-04-20T11:28:38.448Z,4764.38
2019-04-20T11:29:38.446Z,5068.13
2019-04-20T11:30:38.443Z,5315.63
2019-04-20T11:31:42.236Z,5433.75
2019-04-20T11:32:38.444Z,5703.75
2019-04-20T11:33:38.470Z,5810.63
2019-04-20T11:34:40.341Z,5805.00
2019-04-20T11:35:41.509Z,5158.13
2019-04-20T11:36:39.204Z,4770.00
2019-04-20T11:37:39.370Z,4584.38
2019-04-20T11:38:38.737Z,4719.38
2019-04-20T11:39:39.119Z,4826.25
2019-04-20T11:40:39.165Z,4786.88
2019-04-20T11:41:38.967Z,5028.75
2019-04-20T11:42:39.585Z,4944.38
2019-04-20T11:43:39.750Z,4888.13
2019-04-20T11:44:38.446Z,4719.38
2019-04-20T11:45:38.575Z,4663.13
2019-04-20T11:46:38.779Z,4741.88
2019-04-20T11:47:39.702Z,4741.88
2019-04-20T11:48:39.386Z,4944.38
2019-04-20T11:49:39.647Z,5124.38
2019-04-20T11:50:39.779Z,5158.13
2019-04-20T11:51:39.456Z,5158.13
2019-04-20T11:52:43.863Z,5135.63
2019-04-20T11:53:38.616Z,5011.88
2019-04-20T11:54:38.441Z,5101.88
2019-04-20T11:55:38.446Z,5259.38
2019-04-20T11:56:42.110Z,5484.38
2019-04-20T11:57:39.535Z,5490.00
2019-04-20T11:58:38.815Z,5478.75
2019-04-20T11:59:39.050Z,5343.75
2019-04-20T12:00:47.168Z,5175.00
2019-04-20T12:01:49.228Z,5236.88
2019-04-20T12:02:42.317Z,5281.88
2019-04-20T12:03:49.637Z,5034.38
2019-04-20T12:04:48.879Z,4753.13
2019-04-20T12:05:44.423Z,4314.38
2019-04-20T12:06:39.103Z,4201.88
2019-04-20T12:07:38.450Z,4140.00
2019-04-20T12:08:40.507Z,4466.25
2019-04-20T12:09:39.688Z,4803.75
2019-04-20T12:10:39.181Z,4966.88
2019-04-20T12:11:53.470Z,5017.50
2019-04-20T12:12:42.655Z,4983.75
2019-04-20T12:13:38.636Z,4820.63
2019-04-20T12:14:38.796Z,4410.00
2019-04-20T12:15:38.990Z,3836.25
2019-04-20T12:16:39.594Z,3881.25
2019-04-20T12:17:39.718Z,4185.00
2019-04-20T12:18:38.464Z,4291.88
2019-04-20T12:19:39.714Z,4359.38
2019-04-20T12:20:38.911Z,4460.63
2019-04-20T12:21:39.066Z,4640.63
2019-04-20T12:22:38.464Z,4758.75
2019-04-20T12:23:38.470Z,4741.88
2019-04-20T12:24:38.464Z,4860.00
2019-04-20T12:25:40.873Z,4944.38
2019-04-20T12:26:38.697Z,5056.88
2019-04-20T12:27:41.087Z,5085.00
2019-04-20T12:28:39.948Z,5101.88
2019-04-20T12:29:38.718Z,5118.75
2019-04-20T12:30:39.735Z,5158.13
2019-04-20T12:31:39.672Z,5242.50
2019-04-20T12:32:42.917Z,5371.88
2019-04-20T12:33:38.471Z,5411.25
2019-04-20T12:34:39.302Z,5388.75
2019-04-20T12:35:38.508Z,5355.00
2019-04-20T12:36:39.493Z,5326.88
2019-04-20T12:37:38.943Z,4955.63
2019-04-20T12:38:39.129Z,4477.50
2019-04-20T12:39:39.422Z,4151.25
2019-04-20T12:40:39.820Z,4033.13
2019-04-20T12:41:44.880Z,4179.38
2019-04-20T12:42:39.079Z,3875.63
2019-04-20T12:43:38.488Z,4016.25
2019-04-20T12:44:39.636Z,4792.50
2019-04-20T12:45:39.905Z,4747.50
2019-04-20T12:46:38.489Z,4156.88
2019-04-20T12:47:39.631Z,2801.25
2019-04-20T12:48:39.699Z,2418.75
2019-04-20T12:49:38.490Z,3706.88
2019-04-20T12:50:39.548Z,4297.50
2019-04-20T12:51:47.487Z,4584.38
2019-04-20T12:52:38.729Z,4719.38